createdAt,value
2022-10-05T00:00:19.624Z,11.64
2022-10-05T00:01:19.855Z,11.62
2022-10-05T00:02:19.988Z,11.62
2022-10-05T00:03:19.126Z,11.59
2022-10-05T00:04:20.426Z,11.56
2022-10-05T00:05:19.614Z,11.56
2022-10-05T00:06:18.677Z,11.54
2022-10-05T00:07:18.858Z,11.53
2022-10-05T00:08:19.060Z,11.51
2022-10-05T00:09:19.243Z,11.49
2022-10-05T00:10:19.434Z,11.46
2022-10-05T00:11:19.615Z,11.42
2022-10-05T00:12:18.721Z,11.42
2022-10-05T00:13:18.925Z,11.42
2022-10-05T00:14:19.109Z,11.44
2022-10-05T00:15:19.267Z,11.44
2022-10-05T00:16:18.742Z,11.39
2022-10-05T00:17:19.834Z,11.39
2022-10-05T00:18:18.989Z,11.38
2022-10-05T00:19:19.171Z,11.41
2022-10-05T00:20:19.332Z,11.39
2022-10-05T00:21:18.445Z,11.38
2022-10-05T00:22:18.663Z,11.38
2022-10-05T00:23:18.816Z,11.35
2022-10-05T00:24:18.948Z,11.38
2022-10-05T00:25:19.140Z,11.35
2022-10-05T00:26:19.256Z,11.31
2022-10-05T00:27:18.417Z,11.35
2022-10-05T00:28:18.652Z,11.33
2022-10-05T00:29:18.786Z,11.33
2022-10-05T00:30:18.974Z,11.30
2022-10-05T00:31:19.215Z,11.30
2022-10-05T00:32:19.345Z,11.27
2022-10-05T00:33:18.499Z,11.27
2022-10-05T00:34:18.747Z,11.24
2022-10-05T00:35:18.859Z,11.21
2022-10-05T00:36:19.036Z,11.21
2022-10-05T00:37:19.207Z,11.21
2022-10-05T00:38:19.394Z,11.21
2022-10-05T00:39:18.550Z,11.21
2022-10-05T00:40:18.740Z,11.19
2022-10-05T00:41:18.881Z,11.19
2022-10-05T00:42:19.074Z,11.13
2022-10-05T00:43:19.263Z,11.09
2022-10-05T00:44:18.379Z,11.13
2022-10-05T00:45:19.751Z,11.08
2022-10-05T00:46:19.874Z,11.05
2022-10-05T00:47:20.004Z,11.05
2022-10-05T00:48:18.396Z,11.02
2022-10-05T00:49:18.619Z,11.05
2022-10-05T00:50:18.447Z,11.06
2022-10-05T00:51:19.033Z,11.06
2022-10-05T00:52:18.915Z,11.03
2022-10-05T00:53:20.205Z,10.99
2022-10-05T00:54:18.663Z,10.99
2022-10-05T00:55:19.353Z,10.95
2022-10-05T00:56:19.790Z,10.95
2022-10-05T00:57:19.799Z,10.98
2022-10-05T00:58:20.015Z,10.95
2022-10-05T00:59:18.137Z,10.94
2022-10-05T01:00:18.347Z,10.93
2022-10-05T01:01:18.587Z,10.91
2022-10-05T01:02:18.861Z,10.90
2022-10-05T01:03:17.937Z,10.87
2022-10-05T01:04:18.106Z,10.86
2022-10-05T01:05:18.336Z,10.80
2022-10-05T01:06:18.579Z,10.80
2022-10-05T01:07:18.827Z,10.76
2022-10-05T01:08:17.977Z,10.73
2022-10-05T01:09:17.951Z,10.70
2022-10-05T01:10:18.174Z,10.81
2022-10-05T01:11:18.345Z,10.81
2022-10-05T01:12:18.561Z,10.80
2022-10-05T01:13:19.806Z,10.86
2022-10-05T01:14:17.935Z,10.87
2022-10-05T01:15:18.155Z,10.88
2022-10-05T01:16:18.543Z,10.87
2022-10-05T01:17:18.466Z,10.87
2022-10-05T01:18:18.652Z,10.90
2022-10-05T01:19:17.845Z,10.90
2022-10-05T01:20:20.062Z,10.87
2022-10-05T01:21:18.203Z,10.90
2022-10-05T01:22:18.370Z,10.90
2022-10-05T01:23:18.583Z,10.91
2022-10-05T01:24:18.803Z,10.93
2022-10-05T01:25:21.003Z,10.90
2022-10-05T01:26:18.063Z,10.98
2022-10-05T01:27:21.354Z,10.93
2022-10-05T01:28:18.487Z,11.01
2022-10-05T01:29:18.603Z,11.02
2022-10-05T01:30:19.872Z,11.01
2022-10-05T01:31:17.961Z,11.02
2022-10-05T01:32:19.156Z,11.02
2022-10-05T01:33:18.294Z,11.03
2022-10-05T01:34:18.486Z,11.02
2022-10-05T01:35:18.662Z,11.01
2022-10-05T01:36:19.889Z,11.02
2022-10-05T01:37:17.982Z,11.01
2022-10-05T01:38:18.146Z,10.99
2022-10-05T01:39:19.351Z,11.02
2022-10-05T01:40:17.414Z,11.01
2022-10-05T01:41:19.728Z,11.02
2022-10-05T01:42:17.845Z,11.02
2022-10-05T01:43:17.956Z,11.01
2022-10-05T01:44:18.095Z,10.98
2022-10-05T01:45:18.274Z,11.06
2022-10-05T01:46:17.486Z,10.99
2022-10-05T01:47:17.614Z,10.98
2022-10-05T01:48:17.807Z,10.98
2022-10-05T01:49:17.977Z,10.99
2022-10-05T01:50:18.146Z,10.98
2022-10-05T01:51:18.315Z,10.99
2022-10-05T01:52:18.542Z,10.99
2022-10-05T01:53:17.711Z,10.98
2022-10-05T01:54:18.228Z,10.98
2022-10-05T01:55:18.107Z,11.05
2022-10-05T01:56:19.366Z,10.95
2022-10-05T01:57:19.558Z,10.93
2022-10-05T01:58:18.719Z,10.94
2022-10-05T01:59:20.137Z,10.94
2022-10-05T02:00:19.112Z,10.94
2022-10-05T02:01:20.397Z,10.93
2022-10-05T02:02:19.503Z,10.88
2022-10-05T02:03:19.648Z,10.88
2022-10-05T02:04:43.337Z,10.88
2022-10-05T02:05:21.001Z,10.88
2022-10-05T02:06:19.153Z,10.88
2022-10-05T02:07:18.329Z,10.88
2022-10-05T02:08:18.569Z,10.86
2022-10-05T02:09:19.783Z,10.86
2022-10-05T02:10:19.987Z,10.84
2022-10-05T02:11:17.033Z,10.83
2022-10-05T02:12:19.270Z,10.78
2022-10-05T02:13:19.458Z,10.83
2022-10-05T02:14:17.580Z,10.80
2022-10-05T02:15:17.761Z,10.83
2022-10-05T02:16:19.079Z,10.81
2022-10-05T02:17:17.101Z,10.80
2022-10-05T02:18:17.316Z,10.81
2022-10-05T02:19:17.534Z,10.80
2022-10-05T02:20:19.785Z,10.81
2022-10-05T02:21:18.920Z,10.80
2022-10-05T02:22:17.073Z,10.81
2022-10-05T02:23:17.258Z,10.81
2022-10-05T02:24:17.495Z,10.78
2022-10-05T02:25:17.664Z,10.80
2022-10-05T02:26:18.779Z,10.80
2022-10-05T02:27:16.989Z,10.78
2022-10-05T02:28:17.286Z,10.80
2022-10-05T02:29:17.379Z,10.78
2022-10-05T02:30:18.487Z,10.78
2022-10-05T02:31:17.863Z,10.80
2022-10-05T02:32:16.953Z,10.78
2022-10-05T02:33:17.130Z,10.78
2022-10-05T02:34:17.369Z,10.76
2022-10-05T02:35:17.531Z,10.76
2022-10-05T02:36:17.734Z,10.69
2022-10-05T02:37:17.932Z,10.78
2022-10-05T02:38:17.064Z,10.70
2022-10-05T02:39:17.285Z,10.68
2022-10-05T02:40:17.462Z,10.65
2022-10-05T02:41:17.601Z,10.65
2022-10-05T02:42:17.801Z,10.65
2022-10-05T02:43:16.950Z,10.66
2022-10-05T02:44:18.183Z,10.66
2022-10-05T02:45:17.345Z,10.63
2022-10-05T02:46:17.754Z,10.63
2022-10-05T02:47:17.678Z,10.57
2022-10-05T02:48:16.826Z,10.63
2022-10-05T02:49:16.998Z,10.63
2022-10-05T02:50:17.175Z,10.63
2022-10-05T02:51:17.366Z,10.63
2022-10-05T02:52:17.566Z,10.62
2022-10-05T02:53:17.714Z,10.63
2022-10-05T02:54:17.935Z,10.60
2022-10-05T02:55:17.024Z,10.62
2022-10-05T02:56:17.197Z,10.63
2022-10-05T02:57:17.407Z,10.60
2022-10-05T02:58:20.747Z,10.60
2022-10-05T02:59:16.720Z,10.62
2022-10-05T03:00:16.889Z,10.58
2022-10-05T03:01:17.081Z,10.57
2022-10-05T03:02:17.304Z,10.55
2022-10-05T03:03:17.449Z,10.47
2022-10-05T03:04:17.665Z,10.44
2022-10-05T03:05:16.766Z,10.42
2022-10-05T03:06:16.942Z,10.47
2022-10-05T03:07:17.172Z,10.46
2022-10-05T03:08:17.379Z,10.43
2022-10-05T03:09:17.539Z,10.42
2022-10-05T03:10:16.706Z,10.39
2022-10-05T03:11:16.870Z,10.36
2022-10-05T03:12:17.027Z,10.36
2022-10-05T03:13:18.277Z,10.36
2022-10-05T03:14:16.386Z,10.36
2022-10-05T03:15:16.653Z,10.34
2022-10-05T03:16:16.621Z,10.34
2022-10-05T03:17:16.754Z,10.31
2022-10-05T03:18:16.931Z,10.28
2022-10-05T03:19:16.251Z,10.25
2022-10-05T03:20:16.412Z,10.28
2022-10-05T03:21:16.649Z,10.28
2022-10-05T03:22:16.858Z,10.14
2022-10-05T03:23:17.000Z,10.24
2022-10-05T03:24:16.169Z,10.22
2022-10-05T03:25:16.351Z,10.22
2022-10-05T03:26:16.573Z,10.20
2022-10-05T03:27:16.872Z,10.20
2022-10-05T03:28:17.010Z,10.18
2022-10-05T03:29:17.150Z,10.20
2022-10-05T03:30:17.335Z,10.28
2022-10-05T03:31:16.527Z,10.20
2022-10-05T03:32:16.681Z,10.22
2022-10-05T03:33:16.912Z,10.20
2022-10-05T03:34:20.105Z,10.17
2022-10-05T03:35:16.248Z,10.20
2022-10-05T03:36:17.516Z,10.20
2022-10-05T03:37:16.712Z,10.24
2022-10-05T03:38:16.907Z,10.18
2022-10-05T03:39:17.135Z,10.22
2022-10-05T03:40:17.321Z,10.22
2022-10-05T03:41:16.483Z,10.25
2022-10-05T03:42:16.676Z,10.25
2022-10-05T03:43:16.892Z,10.25
2022-10-05T03:44:18.360Z,10.28
2022-10-05T03:45:16.280Z,10.29
2022-10-05T03:46:18.540Z,10.25
2022-10-05T03:47:16.662Z,10.34
2022-10-05T03:48:15.827Z,10.31
2022-10-05T03:49:16.030Z,10.32
2022-10-05T03:50:16.244Z,10.32
2022-10-05T03:51:16.423Z,10.34
2022-10-05T03:52:16.635Z,10.32
2022-10-05T03:53:15.821Z,10.35
2022-10-05T03:54:16.023Z,10.34
2022-10-05T03:55:16.221Z,10.35
2022-10-05T03:56:16.458Z,10.31
2022-10-05T03:57:16.619Z,10.28
2022-10-05T03:58:16.830Z,10.24
2022-10-05T03:59:17.056Z,10.22
2022-10-05T04:00:16.176Z,10.22
2022-10-05T04:01:15.722Z,10.20
2022-10-05T04:02:16.197Z,10.18
2022-10-05T04:03:16.123Z,10.16
2022-10-05T04:04:16.252Z,10.16
2022-10-05T04:05:16.444Z,10.11
2022-10-05T04:06:16.711Z,10.09
2022-10-05T04:07:17.280Z,10.11
2022-10-05T04:08:16.029Z,10.16
2022-10-05T04:09:17.262Z,10.18
2022-10-05T04:10:16.456Z,10.24
2022-10-05T04:11:16.640Z,10.22
2022-10-05T04:12:16.834Z,10.17
2022-10-05T04:13:17.079Z,10.20
2022-10-05T04:14:17.245Z,10.18
2022-10-05T04:15:19.102Z,10.14
2022-10-05T04:16:17.656Z,10.17
2022-10-05T04:17:15.725Z,10.18
2022-10-05T04:18:16.943Z,10.18
2022-10-05T04:19:17.196Z,10.18
2022-10-05T04:20:16.257Z,10.22
2022-10-05T04:21:20.058Z,10.20
2022-10-05T04:22:16.585Z,10.22
2022-10-05T04:23:15.795Z,10.22
2022-10-05T04:24:17.015Z,10.26
2022-10-05T04:25:16.163Z,10.24
2022-10-05T04:26:15.267Z,10.25
2022-10-05T04:27:15.435Z,10.24
2022-10-05T04:28:15.672Z,10.25
2022-10-05T04:29:15.771Z,10.25
2022-10-05T04:30:16.009Z,10.25
2022-10-05T04:31:16.270Z,10.24
2022-10-05T04:32:16.358Z,10.25
2022-10-05T04:33:15.523Z,10.26
2022-10-05T04:34:15.700Z,10.32
2022-10-05T04:35:15.887Z,10.38
2022-10-05T04:36:17.169Z,10.42
2022-10-05T04:37:17.287Z,10.42
2022-10-05T04:38:15.436Z,10.44
2022-10-05T04:39:15.612Z,10.44
2022-10-05T04:40:15.765Z,10.47
2022-10-05T04:41:15.962Z,10.52
2022-10-05T04:42:15.102Z,10.54
2022-10-05T04:43:15.239Z,10.58
2022-10-05T04:44:15.417Z,10.60
2022-10-05T04:45:16.640Z,10.63
2022-10-05T04:46:15.820Z,10.66
2022-10-05T04:47:15.995Z,10.70
2022-10-05T04:48:17.175Z,10.72
2022-10-05T04:49:15.296Z,10.75
2022-10-05T04:50:16.545Z,10.70
2022-10-05T04:51:16.763Z,10.75
2022-10-05T04:52:15.934Z,10.75
2022-10-05T04:53:16.110Z,10.78
2022-10-05T04:54:16.272Z,10.76
2022-10-05T04:55:16.485Z,10.80
2022-10-05T04:56:18.669Z,10.81
2022-10-05T04:57:14.781Z,10.83
2022-10-05T04:58:17.106Z,10.83
2022-10-05T04:59:15.143Z,10.87
2022-10-05T05:00:15.375Z,10.88
2022-10-05T05:01:15.663Z,10.86
2022-10-05T05:02:15.814Z,10.86
2022-10-05T05:03:14.928Z,10.84
2022-10-05T05:04:16.459Z,10.80
2022-10-05T05:05:15.316Z,10.86
2022-10-05T05:06:17.985Z,10.86
2022-10-05T05:07:15.748Z,10.86
2022-10-05T05:08:14.889Z,10.86
2022-10-05T05:09:15.101Z,10.84
2022-10-05T05:10:16.448Z,10.84
2022-10-05T05:11:18.160Z,10.84
2022-10-05T05:12:15.671Z,10.83
2022-10-05T05:13:16.889Z,10.81
2022-10-05T05:14:16.048Z,10.83
2022-10-05T05:15:15.197Z,10.81
2022-10-05T05:16:15.683Z,10.81
2022-10-05T05:17:15.548Z,10.83
2022-10-05T05:18:15.748Z,10.80
2022-10-05T05:19:14.878Z,10.83
2022-10-05T05:20:15.049Z,10.83
2022-10-05T05:21:15.260Z,10.83
2022-10-05T05:22:15.458Z,10.87
2022-10-05T05:23:14.592Z,10.91
2022-10-05T05:24:14.768Z,10.87
2022-10-05T05:25:14.988Z,10.86
2022-10-05T05:26:16.134Z,10.86
2022-10-05T05:27:15.336Z,10.87
2022-10-05T05:28:14.621Z,10.86
2022-10-05T05:29:14.689Z,10.83
2022-10-05T05:30:14.883Z,10.88
2022-10-05T05:31:16.157Z,10.83
2022-10-05T05:32:16.288Z,10.83
2022-10-05T05:33:15.476Z,10.84
2022-10-05T05:34:15.649Z,10.84
2022-10-05T05:35:15.820Z,10.81
2022-10-05T05:36:20.706Z,10.81
2022-10-05T05:37:16.152Z,10.78
2022-10-05T05:38:14.312Z,10.80
2022-10-05T05:39:14.526Z,10.76
2022-10-05T05:40:14.657Z,10.75
2022-10-05T05:41:14.848Z,10.73
2022-10-05T05:42:15.047Z,10.69
2022-10-05T05:43:15.238Z,10.68
2022-10-05T05:44:16.573Z,10.65
2022-10-05T05:45:15.634Z,10.66
2022-10-05T05:46:14.849Z,10.60
2022-10-05T05:47:16.206Z,10.55
2022-10-05T05:48:15.177Z,10.62
2022-10-05T05:49:14.321Z,10.49
2022-10-05T05:50:14.564Z,10.44
2022-10-05T05:51:15.747Z,10.39
2022-10-05T05:52:15.912Z,10.38
2022-10-05T05:53:15.075Z,10.31
2022-10-05T05:54:14.225Z,10.31
2022-10-05T05:55:14.397Z,10.26
2022-10-05T05:56:14.621Z,10.24
2022-10-05T05:57:14.781Z,10.20
2022-10-05T05:58:15.008Z,10.20
2022-10-05T05:59:14.093Z,10.14
2022-10-05T06:00:14.297Z,10.18
2022-10-05T06:01:31.661Z,10.13
2022-10-05T06:02:15.866Z,10.16
2022-10-05T06:03:14.951Z,10.20
2022-10-05T06:04:16.067Z,10.17
2022-10-05T06:05:15.240Z,10.20
2022-10-05T06:06:15.420Z,10.24
2022-10-05T06:07:15.605Z,10.26
2022-10-05T06:08:16.237Z,10.28
2022-10-05T06:09:15.961Z,10.32
2022-10-05T06:10:16.152Z,10.34
2022-10-05T06:11:15.314Z,10.36
2022-10-05T06:12:15.496Z,10.39
2022-10-05T06:13:14.636Z,10.43
2022-10-05T06:14:13.872Z,10.43
2022-10-05T06:15:14.003Z,10.55
2022-10-05T06:16:14.237Z,10.66
2022-10-05T06:17:14.405Z,10.70
2022-10-05T06:18:14.571Z,10.78
2022-10-05T06:19:13.713Z,10.78
2022-10-05T06:20:13.999Z,10.81
2022-10-05T06:21:14.043Z,10.80
2022-10-05T06:22:14.236Z,10.86
2022-10-05T06:23:14.419Z,10.90
2022-10-05T06:24:14.588Z,10.93
2022-10-05T06:25:13.739Z,10.99
2022-10-05T06:26:17.219Z,10.99
2022-10-05T06:27:14.115Z,11.05
2022-10-05T06:28:14.351Z,11.05
2022-10-05T06:29:14.474Z,11.06
2022-10-05T06:30:13.669Z,11.06
2022-10-05T06:31:13.880Z,11.09
2022-10-05T06:32:14.024Z,11.11
2022-10-05T06:33:14.171Z,11.12
2022-10-05T06:34:14.337Z,11.16
2022-10-05T06:35:13.486Z,11.21
2022-10-05T06:36:13.658Z,11.21
2022-10-05T06:37:13.834Z,11.26
2022-10-05T06:38:14.109Z,11.30
2022-10-05T06:39:14.177Z,11.35
2022-10-05T06:40:14.369Z,11.38
2022-10-05T06:41:13.530Z,11.41
2022-10-05T06:42:13.721Z,11.44
2022-10-05T06:43:13.885Z,11.48
2022-10-05T06:44:14.118Z,11.49
2022-10-05T06:45:14.263Z,11.53
2022-10-05T06:46:13.445Z,11.56
2022-10-05T06:47:13.604Z,11.60
2022-10-05T06:48:13.810Z,11.63
2022-10-05T06:49:13.976Z,11.66
2022-10-05T06:50:14.245Z,11.70
2022-10-05T06:51:13.330Z,11.70
2022-10-05T06:52:13.521Z,11.72
2022-10-05T06:53:13.746Z,11.74
2022-10-05T06:54:13.920Z,11.75
2022-10-05T06:55:14.471Z,11.77
2022-10-05T06:56:13.287Z,11.79
2022-10-05T06:57:13.405Z,11.78
2022-10-05T06:58:13.594Z,11.78
2022-10-05T06:59:13.803Z,11.79
2022-10-05T07:00:14.029Z,11.84
2022-10-05T07:01:13.205Z,11.77
2022-10-05T07:02:13.508Z,11.88
2022-10-05T07:03:13.569Z,11.93
2022-10-05T07:04:13.236Z,11.98
2022-10-05T07:05:13.415Z,12.00
2022-10-05T07:06:13.583Z,12.07
2022-10-05T07:07:13.755Z,12.11
2022-10-05T07:08:13.917Z,12.16
2022-10-05T07:09:14.083Z,12.18
2022-10-05T07:10:13.230Z,12.22
2022-10-05T07:11:13.429Z,12.23
2022-10-05T07:12:13.589Z,12.26
2022-10-05T07:13:14.339Z,12.29
2022-10-05T07:14:13.958Z,12.34
2022-10-05T07:15:17.277Z,12.34
2022-10-05T07:16:13.344Z,12.36
2022-10-05T07:17:13.057Z,12.40
2022-10-05T07:18:13.228Z,12.41
2022-10-05T07:19:13.463Z,12.38
2022-10-05T07:20:13.610Z,12.36
2022-10-05T07:21:13.821Z,12.36
2022-10-05T07:22:12.973Z,12.33
2022-10-05T07:23:13.170Z,12.30
2022-10-05T07:24:13.378Z,12.30
2022-10-05T07:25:13.678Z,12.29
2022-10-05T07:26:13.756Z,12.29
2022-10-05T07:27:13.963Z,12.21
2022-10-05T07:28:13.201Z,12.19
2022-10-05T07:29:14.359Z,12.21
2022-10-05T07:30:13.524Z,12.22
2022-10-05T07:31:13.878Z,12.19
2022-10-05T07:32:12.836Z,12.18
2022-10-05T07:33:13.033Z,12.18
2022-10-05T07:34:13.202Z,12.19
2022-10-05T07:35:13.401Z,12.19
2022-10-05T07:36:13.587Z,12.22
2022-10-05T07:37:12.779Z,12.31
2022-10-05T07:38:12.917Z,12.26
2022-10-05T07:39:13.133Z,12.29
2022-10-05T07:40:13.313Z,12.34
2022-10-05T07:41:13.480Z,12.33
2022-10-05T07:42:12.611Z,12.33
2022-10-05T07:43:12.928Z,12.34
2022-10-05T07:44:13.216Z,12.37
2022-10-05T07:45:13.190Z,12.40
2022-10-05T07:46:13.520Z,12.40
2022-10-05T07:47:13.555Z,12.43
2022-10-05T07:48:14.831Z,12.46
2022-10-05T07:49:14.014Z,12.44
2022-10-05T07:50:13.112Z,12.46
2022-10-05T07:51:13.301Z,12.48
2022-10-05T07:52:14.508Z,12.52
2022-10-05T07:53:14.653Z,12.58
2022-10-05T07:54:20.123Z,12.54
2022-10-05T07:55:12.898Z,12.55
2022-10-05T07:56:13.069Z,12.56
2022-10-05T07:57:13.257Z,12.58
2022-10-05T07:58:13.430Z,12.59
2022-10-05T07:59:12.558Z,12.62
2022-10-05T08:00:12.796Z,12.62
2022-10-05T08:01:12.911Z,12.63
2022-10-05T08:02:13.228Z,12.69
2022-10-05T08:03:13.329Z,12.69
2022-10-05T08:04:13.511Z,12.71
2022-10-05T08:05:13.710Z,12.76
2022-10-05T08:06:12.803Z,12.76
2022-10-05T08:07:13.051Z,12.80
2022-10-05T08:08:15.497Z,12.81
2022-10-05T08:09:12.328Z,12.87
2022-10-05T08:10:12.479Z,12.81
2022-10-05T08:11:12.750Z,12.85
2022-10-05T08:12:12.836Z,12.87
2022-10-05T08:13:13.035Z,12.89
2022-10-05T08:14:13.251Z,12.91
2022-10-05T08:15:12.363Z,12.91
2022-10-05T08:16:12.674Z,12.92
2022-10-05T08:17:13.137Z,12.94
2022-10-05T08:18:12.925Z,12.92
2022-10-05T08:19:13.116Z,12.92
2022-10-05T08:20:14.332Z,12.94
2022-10-05T08:21:13.508Z,12.95
2022-10-05T08:22:12.612Z,12.96
2022-10-05T08:23:12.859Z,12.98
2022-10-05T08:24:12.977Z,12.98
2022-10-05T08:25:14.201Z,12.99
2022-10-05T08:26:12.288Z,13.03
2022-10-05T08:27:13.519Z,13.01
2022-10-05T08:28:12.700Z,13.01
2022-10-05T08:29:13.936Z,13.01
2022-10-05T08:30:11.998Z,13.04
2022-10-05T08:31:12.243Z,13.04
2022-10-05T08:32:14.419Z,13.07
2022-10-05T08:33:13.594Z,13.16
2022-10-05T08:34:12.722Z,13.07
2022-10-05T08:35:12.904Z,13.09
2022-10-05T08:36:12.156Z,13.12
2022-10-05T08:37:12.137Z,13.14
2022-10-05T08:38:13.366Z,13.14
2022-10-05T08:39:13.543Z,13.24
2022-10-05T08:40:12.679Z,13.24
2022-10-05T08:41:11.864Z,13.27
2022-10-05T08:42:13.059Z,13.32
2022-10-05T08:43:13.258Z,13.35
2022-10-05T08:44:12.356Z,13.36
2022-10-05T08:45:12.539Z,13.43
2022-10-05T08:46:12.835Z,13.48
2022-10-05T08:47:11.867Z,13.51
2022-10-05T08:48:12.037Z,13.55
2022-10-05T08:49:12.259Z,13.61
2022-10-05T08:50:12.487Z,13.66
2022-10-05T08:51:12.574Z,13.72
2022-10-05T08:52:12.729Z,13.75
2022-10-05T08:53:11.824Z,13.76
2022-10-05T08:54:11.995Z,13.81
2022-10-05T08:55:12.156Z,13.84
2022-10-05T08:56:15.338Z,13.90
2022-10-05T08:57:13.495Z,13.94
2022-10-05T08:58:12.627Z,13.98
2022-10-05T08:59:12.755Z,14.02
2022-10-05T09:00:11.933Z,14.04
2022-10-05T09:01:12.137Z,14.13
2022-10-05T09:02:12.317Z,14.20
2022-10-05T09:03:12.420Z,14.21
2022-10-05T09:04:12.583Z,14.26
2022-10-05T09:05:12.717Z,14.31
2022-10-05T09:06:11.885Z,14.38
2022-10-05T09:07:12.039Z,14.42
2022-10-05T09:08:12.237Z,14.49
2022-10-05T09:09:12.511Z,14.49
2022-10-05T09:10:11.550Z,14.59
2022-10-05T09:11:11.701Z,14.64
2022-10-05T09:12:11.853Z,14.67
2022-10-05T09:13:12.009Z,14.75
2022-10-05T09:14:12.179Z,14.83
2022-10-05T09:15:25.530Z,14.86
2022-10-05T09:16:12.531Z,14.95
2022-10-05T09:17:11.633Z,14.98
2022-10-05T09:18:12.809Z,15.11
2022-10-05T09:19:12.971Z,15.23
2022-10-05T09:20:12.129Z,15.31
2022-10-05T09:21:12.655Z,15.38
2022-10-05T09:22:12.459Z,15.40
2022-10-05T09:23:11.569Z,15.46
2022-10-05T09:24:11.730Z,15.52
2022-10-05T09:25:11.870Z,15.53
2022-10-05T09:26:12.033Z,15.60
2022-10-05T09:27:42.287Z,15.73
2022-10-05T09:28:11.340Z,15.73
2022-10-05T09:29:11.465Z,15.76
2022-10-05T09:30:12.662Z,15.77
2022-10-05T09:31:12.896Z,15.80
2022-10-05T09:32:16.327Z,15.84
2022-10-05T09:33:12.145Z,15.88
2022-10-05T09:34:11.194Z,15.93
2022-10-05T09:35:12.459Z,15.89
2022-10-05T09:36:11.519Z,15.80
2022-10-05T09:37:11.681Z,15.74
2022-10-05T09:38:11.825Z,15.76
2022-10-05T09:39:12.002Z,15.80
2022-10-05T09:40:11.065Z,15.85
2022-10-05T09:41:11.223Z,15.84
2022-10-05T09:42:12.396Z,15.80
2022-10-05T09:43:12.524Z,15.84
2022-10-05T09:44:11.621Z,15.84
2022-10-05T09:45:11.819Z,15.84
2022-10-05T09:46:11.992Z,15.81
2022-10-05T09:47:11.059Z,15.84
2022-10-05T09:48:13.247Z,15.92
2022-10-05T09:49:13.396Z,15.92
2022-10-05T09:50:11.462Z,16.01
2022-10-05T09:51:11.640Z,16.03
2022-10-05T09:52:16.439Z,16.08
2022-10-05T09:53:12.845Z,16.16
2022-10-05T09:54:10.940Z,16.25
2022-10-05T09:55:13.173Z,16.23
2022-10-05T09:56:11.209Z,16.23
2022-10-05T09:57:11.402Z,16.27
2022-10-05T09:58:12.522Z,16.29
2022-10-05T09:59:11.593Z,16.36
2022-10-05T10:00:11.717Z,16.27
2022-10-05T10:01:29.091Z,16.26
2022-10-05T10:02:12.062Z,16.23
2022-10-05T10:03:11.181Z,16.30
2022-10-05T10:04:11.235Z,16.25
2022-10-05T10:05:11.417Z,16.23
2022-10-05T10:06:11.527Z,16.18
2022-10-05T10:07:10.823Z,16.11
2022-10-05T10:08:11.001Z,16.07
2022-10-05T10:09:13.180Z,16.04
2022-10-05T10:10:11.227Z,16.01
2022-10-05T10:11:11.404Z,16.06
2022-10-05T10:12:12.578Z,16.14
2022-10-05T10:13:10.675Z,16.13
2022-10-05T10:14:10.943Z,16.11
2022-10-05T10:15:10.949Z,16.17
2022-10-05T10:16:15.205Z,16.33
2022-10-05T10:17:11.222Z,16.41
2022-10-05T10:18:11.348Z,16.50
2022-10-05T10:19:11.559Z,16.55
2022-10-05T10:20:10.590Z,16.54
2022-10-05T10:21:10.767Z,16.60
2022-10-05T10:22:10.971Z,16.67
2022-10-05T10:23:11.039Z,16.72
2022-10-05T10:24:11.182Z,16.77
2022-10-05T10:25:11.871Z,16.84
2022-10-05T10:26:11.438Z,16.88
2022-10-05T10:27:11.627Z,16.91
2022-10-05T10:28:10.681Z,16.92
2022-10-05T10:29:12.864Z,16.92
2022-10-05T10:30:10.944Z,16.96
2022-10-05T10:31:11.202Z,16.96
2022-10-05T10:32:11.241Z,16.99
2022-10-05T10:33:10.359Z,17.06
2022-10-05T10:34:10.472Z,17.06
2022-10-05T10:35:10.614Z,17.07
2022-10-05T10:36:10.751Z,17.20
2022-10-05T10:37:10.949Z,17.25
2022-10-05T10:38:11.020Z,17.05
2022-10-05T10:39:11.156Z,16.98
2022-10-05T10:40:10.265Z,16.95
2022-10-05T10:41:10.407Z,16.84
2022-10-05T10:42:10.548Z,16.70
2022-10-05T10:43:10.796Z,16.62
2022-10-05T10:44:10.940Z,16.63
2022-10-05T10:45:10.966Z,16.73
2022-10-05T10:46:11.172Z,16.82
2022-10-05T10:47:10.215Z,16.92
2022-10-05T10:48:10.397Z,17.05
2022-10-05T10:49:10.603Z,17.10
2022-10-05T10:50:10.708Z,17.22
2022-10-05T10:51:11.897Z,17.28
2022-10-05T10:52:11.016Z,17.38
2022-10-05T10:53:10.202Z,17.43
2022-10-05T10:54:10.285Z,17.46
2022-10-05T10:55:10.483Z,17.54
2022-10-05T10:56:10.577Z,17.60
2022-10-05T10:57:10.685Z,17.63
2022-10-05T10:58:15.762Z,17.66
2022-10-05T10:59:10.987Z,17.76
2022-10-05T11:00:10.111Z,17.80
2022-10-05T11:01:10.335Z,17.76
2022-10-05T11:02:10.442Z,17.73
2022-10-05T11:03:10.661Z,17.65
2022-10-05T11:04:10.749Z,17.62
2022-10-05T11:05:10.911Z,17.66
2022-10-05T11:06:11.090Z,17.74
2022-10-05T11:07:10.227Z,17.80
2022-10-05T11:08:10.344Z,17.80
2022-10-05T11:09:11.574Z,17.86
2022-10-05T11:10:10.643Z,17.89
2022-10-05T11:11:10.836Z,17.86
2022-10-05T11:12:11.098Z,17.86
2022-10-05T11:13:10.098Z,17.98
2022-10-05T11:14:10.191Z,18.07
2022-10-05T11:15:10.351Z,18.13
2022-10-05T11:16:12.405Z,18.19
2022-10-05T11:17:11.615Z,18.16
2022-10-05T11:18:09.900Z,18.20
2022-10-05T11:19:09.910Z,18.25
2022-10-05T11:20:10.082Z,18.23
2022-10-05T11:21:10.222Z,18.23
2022-10-05T11:22:10.398Z,18.31
2022-10-05T11:23:10.531Z,18.36
2022-10-05T11:24:09.627Z,18.44
2022-10-05T11:25:09.770Z,18.50
2022-10-05T11:26:11.028Z,18.57
2022-10-05T11:27:10.144Z,18.59
2022-10-05T11:28:10.252Z,18.54
2022-10-05T11:29:11.065Z,18.53
2022-10-05T11:30:11.515Z,18.51
2022-10-05T11:31:10.652Z,18.49
2022-10-05T11:32:09.733Z,18.47
2022-10-05T11:33:09.864Z,18.41
2022-10-05T11:34:10.131Z,18.41
2022-10-05T11:35:10.198Z,18.47
2022-10-05T11:36:10.294Z,18.56
2022-10-05T11:37:10.493Z,18.56
2022-10-05T11:38:09.633Z,18.60
2022-10-05T11:39:09.693Z,18.60
2022-10-05T11:40:11.986Z,18.59
2022-10-05T11:41:09.992Z,18.59
2022-10-05T11:42:10.153Z,18.56
2022-10-05T11:43:10.281Z,18.50
2022-10-05T11:44:10.484Z,18.50
2022-10-05T11:45:09.525Z,18.54
2022-10-05T11:46:10.802Z,18.57
2022-10-05T11:47:09.825Z,18.59
2022-10-05T11:48:09.943Z,18.71
2022-10-05T11:49:10.082Z,18.86
2022-10-05T11:50:10.247Z,18.91
2022-10-05T11:51:09.481Z,18.89
2022-10-05T11:52:09.502Z,18.82
2022-10-05T11:53:10.625Z,18.75
2022-10-05T11:54:09.723Z,18.78
2022-10-05T11:55:11.704Z,18.84
2022-10-05T11:56:09.955Z,18.90
2022-10-05T11:57:10.127Z,18.96
2022-10-05T11:58:10.246Z,19.02
2022-10-05T11:59:09.310Z,19.05
2022-10-05T12:00:09.493Z,18.97
2022-10-05T12:01:09.617Z,18.96
2022-10-05T12:02:09.733Z,19.05
2022-10-05T12:03:10.033Z,19.05
2022-10-05T12:04:10.149Z,18.96
2022-10-05T12:05:10.127Z,18.90
2022-10-05T12:06:11.228Z,18.87
2022-10-05T12:07:09.358Z,18.94
2022-10-05T12:08:09.489Z,19.06
2022-10-05T12:09:09.665Z,19.15
2022-10-05T12:10:09.697Z,19.17
2022-10-05T12:11:10.871Z,19.13
2022-10-05T12:12:09.978Z,19.20
2022-10-05T12:13:09.055Z,19.32
2022-10-05T12:14:10.314Z,19.30
2022-10-05T12:15:09.321Z,19.28
2022-10-05T12:16:09.598Z,19.34
2022-10-05T12:17:09.754Z,19.40
2022-10-05T12:18:09.773Z,19.49
2022-10-05T12:19:09.809Z,19.61
2022-10-05T12:20:10.072Z,19.79
2022-10-05T12:21:10.097Z,19.76
2022-10-05T12:22:10.149Z,19.71
2022-10-05T12:23:10.294Z,19.68
2022-10-05T12:24:10.414Z,19.76
2022-10-05T12:25:09.479Z,19.86
2022-10-05T12:26:10.689Z,19.92
2022-10-05T12:27:09.755Z,20.00
2022-10-05T12:28:09.938Z,20.04
2022-10-05T12:29:08.986Z,20.15
2022-10-05T12:30:10.154Z,20.05
2022-10-05T12:31:09.297Z,19.98
2022-10-05T12:32:09.558Z,19.80
2022-10-05T12:33:09.509Z,19.72
2022-10-05T12:34:09.613Z,19.70
2022-10-05T12:35:09.723Z,19.70
2022-10-05T12:36:08.812Z,19.64
2022-10-05T12:37:10.054Z,19.62
2022-10-05T12:38:09.094Z,19.71
2022-10-05T12:39:09.200Z,19.92
2022-10-05T12:40:09.399Z,20.05
2022-10-05T12:41:09.535Z,20.05
2022-10-05T12:42:10.743Z,20.13
2022-10-05T12:43:08.825Z,20.26
2022-10-05T12:44:10.043Z,20.25
2022-10-05T12:45:10.148Z,20.05
2022-10-05T12:46:10.362Z,19.83
2022-10-05T12:47:10.441Z,19.83
2022-10-05T12:48:08.595Z,19.68
2022-10-05T12:49:08.746Z,19.71
2022-10-05T12:50:09.889Z,19.83
2022-10-05T12:51:09.002Z,19.97
2022-10-05T12:52:09.232Z,20.01